createdAt,value
2017-01-01T00:00:42.249Z,27.1
2017-01-01T00:01:40.721Z,27
2017-01-01T00:02:42.391Z,27.1
2017-01-01T00:06:36.941Z,27
2017-01-01T00:07:38.386Z,27
2017-01-01T00:08:36.888Z,26.9
2017-01-01T00:09:37.011Z,27
2017-01-01T00:10:38.598Z,27
2017-01-01T00:11:37.071Z,27
2017-01-01T00:12:37.073Z,27
2017-01-01T00:13:37.034Z,27
2017-01-01T00:14:37.230Z,27
2017-01-01T00:15:37.293Z,27
2017-01-01T00:16:37.345Z,27
2017-01-01T00:17:37.332Z,27
2017-01-01T00:18:37.372Z,27
2017-01-01T00:19:39.031Z,27
2017-01-01T00:20:37.510Z,27
2017-01-01T00:21:39.103Z,27
2017-01-01T00:22:39.234Z,27
2017-01-01T00:23:37.649Z,27
2017-01-01T00:24:39.180Z,27
2017-01-01T00:25:37.741Z,27
2017-01-01T00:26:39.375Z,27
2017-01-01T00:27:39.394Z,27
2017-01-01T00:28:39.369Z,27
2017-01-01T00:29:37.893Z,27
2017-01-01T00:30:39.504Z,27.1
2017-01-01T00:31:39.522Z,27.1
2017-01-01T00:32:37.836Z,27
2017-01-01T00:33:39.609Z,27
2017-01-01T00:34:39.614Z,27
2017-01-01T00:35:39.555Z,27
2017-01-01T00:36:38.050Z,27
2017-01-01T00:37:38.049Z,27
2017-01-01T00:38:38.232Z,27
2017-01-01T00:39:39.745Z,27
2017-01-01T00:40:39.862Z,27
2017-01-01T00:41:38.245Z,27
2017-01-01T00:42:39.868Z,27
2017-01-01T00:43:38.505Z,27
2017-01-01T00:44:40.083Z,27
2017-01-01T00:45:38.430Z,27
2017-01-01T00:46:40.187Z,27
2017-01-01T00:47:40.200Z,27
2017-01-01T00:48:40.223Z,27
2017-01-01T00:49:38.787Z,27
2017-01-01T00:50:38.707Z,27
2017-01-01T00:51:40.441Z,27
2017-01-01T00:52:40.412Z,27
2017-01-01T00:53:38.970Z,27
2017-01-01T00:54:39.116Z,27
2017-01-01T00:55:39.083Z,27
2017-01-01T00:56:40.695Z,27
2017-01-01T00:57:39.019Z,27
2017-01-01T00:58:40.744Z,27
2017-01-01T00:59:39.104Z,27
2017-01-01T01:00:39.350Z,27
2017-01-01T01:01:40.934Z,27
2017-01-01T01:02:39.307Z,27
2017-01-01T01:03:39.452Z,27
2017-01-01T01:04:41.042Z,27
2017-01-01T01:05:41.745Z,27
2017-01-01T01:06:41.161Z,27
2017-01-01T01:07:39.456Z,27
2017-01-01T01:08:41.166Z,27
2017-01-01T01:09:41.181Z,27
2017-01-01T01:10:41.279Z,27
2017-01-01T01:11:41.337Z,27
2017-01-01T01:12:41.278Z,27
2017-01-01T01:13:41.354Z,27
2017-01-01T01:14:41.331Z,27
2017-01-01T01:16:29.056Z,27
2017-01-01T01:17:30.695Z,27
2017-01-01T01:18:30.747Z,26.9
2017-01-01T01:19:30.823Z,27
2017-01-01T01:20:29.173Z,26.9
2017-01-01T01:21:30.910Z,27
2017-01-01T01:22:30.823Z,26.9
2017-01-01T01:23:29.462Z,27
2017-01-01T01:24:31.132Z,27
2017-01-01T01:25:29.397Z,27
2017-01-01T01:26:31.083Z,27
2017-01-01T01:27:31.097Z,26.9
2017-01-01T01:28:31.151Z,27
2017-01-01T01:29:29.598Z,26.9
2017-01-01T01:30:29.712Z,27
2017-01-01T01:31:29.645Z,27
2017-01-01T01:32:31.345Z,27
2017-01-01T01:33:29.759Z,27
2017-01-01T01:34:29.798Z,26.9
2017-01-01T01:35:29.798Z,27
2017-01-01T01:36:31.519Z,27
2017-01-01T01:37:31.541Z,27
2017-01-01T01:38:31.520Z,27
2017-01-01T01:39:29.991Z,27
2017-01-01T01:40:29.979Z,27
2017-01-01T01:41:30.098Z,27
2017-01-01T01:42:30.118Z,27
2017-01-01T01:43:30.124Z,27
2017-01-01T01:44:31.919Z,27
2017-01-01T01:45:30.275Z,27
2017-01-01T01:46:31.852Z,26.9
2017-01-01T01:47:30.444Z,27
2017-01-01T01:48:30.318Z,27
2017-01-01T01:49:32.014Z,26.9
2017-01-01T01:50:30.514Z,26.9
2017-01-01T01:51:30.483Z,26.9
2017-01-01T01:52:32.212Z,26.9
2017-01-01T01:53:30.738Z,26.9
2017-01-01T01:54:32.205Z,26.9
2017-01-01T01:55:32.249Z,26.9
2017-01-01T01:56:32.471Z,26.9
2017-01-01T01:57:30.780Z,26.9
2017-01-01T01:58:30.818Z,26.9
2017-01-01T01:59:30.987Z,26.9
2017-01-01T02:00:32.439Z,26.9
2017-01-01T02:01:31.034Z,26.9
2017-01-01T02:02:32.665Z,26.9
2017-01-01T02:03:31.124Z,26.9
2017-01-01T02:04:31.200Z,26.9
2017-01-01T02:05:31.183Z,26.9
2017-01-01T02:06:32.909Z,26.9
2017-01-01T02:07:31.289Z,26.9
2017-01-01T02:08:32.947Z,26.9
2017-01-01T02:09:33.028Z,27
2017-01-01T02:10:31.399Z,27
2017-01-01T02:11:33.019Z,26.9
2017-01-01T02:12:33.044Z,26.9
2017-01-01T02:13:33.117Z,26.9
2017-01-01T02:14:33.168Z,26.9
2017-01-01T02:15:31.609Z,26.9
2017-01-01T02:16:33.320Z,26.9
2017-01-01T02:17:31.785Z,26.9
2017-01-01T02:18:33.458Z,26.9
2017-01-01T02:19:33.465Z,26.9
2017-01-01T02:20:34.193Z,26.9
2017-01-01T02:21:33.528Z,26.9
2017-01-01T02:22:31.884Z,26.9
2017-01-01T02:23:32.021Z,26.9
2017-01-01T02:24:33.682Z,26.9
2017-01-01T02:25:33.801Z,26.9
2017-01-01T02:26:34.765Z,26.9
2017-01-01T02:27:33.852Z,26.9
2017-01-01T02:28:32.233Z,26.9
2017-01-01T02:29:32.441Z,26.9
2017-01-01T02:30:32.348Z,26.9
2017-01-01T02:31:32.461Z,26.9
2017-01-01T02:32:32.597Z,26.9
2017-01-01T02:33:34.135Z,26.9
2017-01-01T02:34:32.636Z,26.9
2017-01-01T02:35:34.179Z,26.9
2017-01-01T02:36:34.187Z,26.9
2017-01-01T02:37:32.725Z,26.9
2017-01-01T02:38:32.683Z,26.9
2017-01-01T02:39:34.387Z,26.9
2017-01-01T02:40:32.814Z,26.9
2017-01-01T02:41:34.292Z,26.9
2017-01-01T02:42:32.726Z,26.9
2017-01-01T02:43:34.490Z,26.9
2017-01-01T02:44:32.812Z,26.9
2017-01-01T02:45:33.042Z,26.9
2017-01-01T02:46:34.664Z,26.9
2017-01-01T02:56:35.020Z,26.7
2017-01-01T02:57:34.983Z,26.7
2017-01-01T02:58:35.031Z,26.7
2017-01-01T02:59:33.436Z,26.7
2017-01-01T03:00:35.091Z,26.7
2017-01-01T03:01:35.043Z,26.7
2017-01-01T03:02:35.112Z,26.8
2017-01-01T03:03:33.545Z,26.7
2017-01-01T03:04:35.186Z,26.8
2017-01-01T03:05:33.579Z,26.8
2017-01-01T03:06:33.592Z,26.8
2017-01-01T03:07:35.224Z,26.8
2017-01-01T03:08:33.770Z,26.8
2017-01-01T03:09:35.440Z,26.8
2017-01-01T03:10:35.490Z,26.8
2017-01-01T03:11:34.028Z,26.8
2017-01-01T03:12:34.079Z,26.8
2017-01-01T03:13:35.644Z,26.8
2017-01-01T03:14:35.568Z,26.9
2017-01-01T03:15:34.052Z,26.9
2017-01-01T03:16:35.657Z,26.9
2017-01-01T03:17:35.708Z,26.8
2017-01-01T03:18:34.279Z,26.8
2017-01-01T03:19:34.360Z,26.9
2017-01-01T03:20:34.282Z,26.9
2017-01-01T03:21:36.054Z,26.8
2017-01-01T03:22:36.083Z,26.8
2017-01-01T03:23:34.353Z,26.8
2017-01-01T03:24:36.110Z,26.8
2017-01-01T03:25:34.487Z,26.8
2017-01-01T03:26:36.189Z,26.8
2017-01-01T03:27:36.300Z,26.8
2017-01-01T03:28:36.159Z,26.8
2017-01-01T03:29:34.709Z,26.8
2017-01-01T03:30:34.791Z,26.8
2017-01-01T03:31:36.425Z,26.8
2017-01-01T03:32:36.479Z,26.8
2017-01-01T03:33:36.660Z,26.8
2017-01-01T03:34:34.921Z,26.8
2017-01-01T03:35:36.435Z,26.8
2017-01-01T03:36:36.632Z,26.8
2017-01-01T03:37:36.581Z,26.8
2017-01-01T03:38:36.531Z,26.8
2017-01-01T03:39:36.651Z,26.8
2017-01-01T03:40:36.649Z,26.8
2017-01-01T03:41:35.170Z,26.8
2017-01-01T03:42:36.776Z,26.8
2017-01-01T03:43:35.262Z,26.8
2017-01-01T03:44:35.275Z,26.8
2017-01-01T03:45:35.299Z,26.8
2017-01-01T03:46:35.389Z,26.8
2017-01-01T03:47:35.430Z,26.8
2017-01-01T03:48:37.122Z,26.8
2017-01-01T03:49:37.137Z,26.8
2017-01-01T03:50:37.075Z,26.8
2017-01-01T03:51:35.590Z,26.8
2017-01-01T03:52:37.280Z,26.8
2017-01-01T03:53:35.730Z,26.8
2017-01-01T03:54:35.614Z,26.8
2017-01-01T03:55:37.436Z,26.8
2017-01-01T03:56:37.407Z,26.8
2017-01-01T03:57:37.434Z,26.8
2017-01-01T03:58:36.056Z,26.8
2017-01-01T03:59:37.666Z,26.7
2017-01-01T04:00:37.793Z,26.8
2017-01-01T04:01:36.115Z,26.8
2017-01-01T04:02:37.654Z,26.8
2017-01-01T04:03:36.175Z,26.8
2017-01-01T04:04:36.204Z,26.8
2017-01-01T04:05:36.292Z,26.8
2017-01-01T04:06:36.303Z,26.7
2017-01-01T04:07:37.984Z,26.8
2017-01-01T04:08:36.570Z,26.8
2017-01-01T04:09:36.514Z,26.8
2017-01-01T04:10:36.575Z,26.8
2017-01-01T04:11:38.229Z,26.8
2017-01-01T04:12:36.628Z,26.8
2017-01-01T04:13:38.388Z,26.8
2017-01-01T04:14:38.512Z,26.8
2017-01-01T04:15:36.841Z,26.8
2017-01-01T04:16:36.827Z,26.8
2017-01-01T04:17:38.527Z,26.8
2017-01-01T04:18:38.625Z,26.8
2017-01-01T04:19:38.687Z,26.8
2017-01-01T04:20:36.956Z,26.8
2017-01-01T04:21:38.733Z,26.8
2017-01-01T04:22:38.804Z,26.8
2017-01-01T04:23:38.789Z,26.8
2017-01-01T04:24:37.321Z,26.8
2017-01-01T04:25:37.391Z,26.8
2017-01-01T04:26:37.314Z,26.8
2017-01-01T04:27:38.934Z,26.8
2017-01-01T04:28:37.293Z,26.8
2017-01-01T04:29:38.953Z,26.8
2017-01-01T04:30:37.415Z,26.8
2017-01-01T04:31:39.095Z,26.8
2017-01-01T04:32:39.205Z,26.8
2017-01-01T04:33:39.273Z,26.8
2017-01-01T04:34:37.706Z,26.8
2017-01-01T04:35:37.722Z,26.8
2017-01-01T04:36:39.385Z,26.8
2017-01-01T04:37:39.379Z,26.8
2017-01-01T04:38:37.842Z,26.7
2017-01-01T04:39:37.912Z,26.8
2017-01-01T04:40:39.561Z,26.8
2017-01-01T04:41:39.634Z,26.8
2017-01-01T04:42:39.568Z,26.8
2017-01-01T04:43:38.091Z,26.8
2017-01-01T04:44:38.178Z,26.8
2017-01-01T04:45:38.253Z,26.8
2017-01-01T04:46:39.868Z,26.8
2017-01-01T04:47:39.797Z,26.8
2017-01-01T04:48:38.323Z,26.8
2017-01-01T04:49:38.347Z,26.8
2017-01-01T04:50:38.316Z,26.8
2017-01-01T04:51:38.452Z,26.8
2017-01-01T04:52:38.499Z,26.8
2017-01-01T04:53:38.452Z,26.7
2017-01-01T04:54:38.534Z,26.7
2017-01-01T04:55:40.121Z,26.8
2017-01-01T04:56:40.141Z,26.8
2017-01-01T04:57:38.552Z,26.7
2017-01-01T04:58:40.264Z,26.7
2017-01-01T04:59:40.237Z,26.8
2017-01-01T05:00:40.252Z,26.8
2017-01-01T05:01:38.651Z,26.8
2017-01-01T05:02:41.028Z,26.8
2017-01-01T05:03:40.441Z,26.8
2017-01-01T05:04:38.795Z,26.8
2017-01-01T05:05:40.547Z,26.8
2017-01-01T05:06:40.679Z,26.8
2017-01-01T05:07:40.728Z,26.8
2017-01-01T05:08:40.612Z,26.8
2017-01-01T05:09:40.615Z,26.7
2017-01-01T05:10:40.658Z,26.8
2017-01-01T05:11:39.327Z,26.8
2017-01-01T05:12:39.381Z,26.8
2017-01-01T05:13:39.407Z,26.7
2017-01-01T05:14:41.147Z,26.7
2017-01-01T05:15:40.969Z,26.7
2017-01-01T05:16:41.103Z,26.7
2017-01-01T05:17:41.166Z,26.7
2017-01-01T05:18:39.676Z,26.7
2017-01-01T05:19:39.818Z,26.7
2017-01-01T05:20:39.875Z,26.7
2017-01-01T05:21:39.991Z,26.7
2017-01-01T05:22:39.985Z,26.7
2017-01-01T05:23:40.210Z,26.7
2017-01-01T05:24:40.166Z,26.7
2017-01-01T05:25:40.246Z,26.7
2017-01-01T05:26:41.858Z,26.7
2017-01-01T05:27:40.199Z,26.7
2017-01-01T05:28:40.236Z,26.7
2017-01-01T05:29:41.842Z,26.7
2017-01-01T05:30:41.825Z,26.7
2017-01-01T05:31:40.338Z,26.7
2017-01-01T05:32:42.042Z,26.7
2017-01-01T05:33:42.009Z,26.7
2017-01-01T05:34:42.117Z,26.7
2017-01-01T05:35:40.664Z,26.7
2017-01-01T05:36:40.682Z,26.7
2017-01-01T05:37:42.482Z,26.7
2017-01-01T05:38:40.727Z,26.7
2017-01-01T05:39:40.720Z,26.7
2017-01-01T05:40:42.452Z,26.7
2017-01-01T05:41:42.532Z,26.7
2017-01-01T05:42:41.093Z,26.7
2017-01-01T05:43:41.085Z,26.7
2017-01-01T05:44:41.075Z,26.7
2017-01-01T05:45:42.825Z,26.7
2017-01-01T05:46:42.728Z,26.7
2017-01-01T05:47:41.297Z,26.7
2017-01-01T05:48:42.888Z,26.7
2017-01-01T05:49:42.825Z,26.7
2017-01-01T05:50:42.806Z,26.7
2017-01-01T05:51:42.914Z,26.7
2017-01-01T05:52:42.987Z,26.7
2017-01-01T05:53:43.072Z,26.7
2017-01-01T05:54:43.189Z,26.7
2017-01-01T05:55:43.171Z,26.7
2017-01-01T05:56:41.658Z,26.7
2017-01-01T05:57:41.854Z,26.7
2017-01-01T05:58:43.502Z,26.7
2017-01-01T05:59:43.419Z,26.7
2017-01-01T06:00:43.549Z,26.7
2017-01-01T06:01:41.918Z,26.7
2017-01-01T06:02:42.058Z,26.7
2017-01-01T06:03:42.166Z,26.7
2017-01-01T06:04:43.719Z,26.7
2017-01-01T06:05:42.259Z,26.7
2017-01-01T06:06:42.330Z,26.7
2017-01-01T06:07:44.031Z,26.7
2017-01-01T06:08:42.572Z,26.7
2017-01-01T06:09:42.590Z,26.7
2017-01-01T06:10:42.545Z,26.7
2017-01-01T06:11:42.727Z,26.7
2017-01-01T06:12:42.761Z,26.7
2017-01-01T06:13:42.730Z,26.7
2017-01-01T06:14:44.369Z,26.7
2017-01-01T06:15:44.457Z,26.7
2017-01-01T06:16:44.443Z,26.7
2017-01-01T06:17:42.975Z,26.7
2017-01-01T06:18:44.616Z,26.7
2017-01-01T06:19:43.101Z,26.7
2017-01-01T06:20:44.746Z,26.7
2017-01-01T06:21:44.737Z,26.7
2017-01-01T06:22:43.193Z,26.7
2017-01-01T06:23:43.272Z,26.7
2017-01-01T06:24:43.194Z,26.7
2017-01-01T06:25:44.914Z,26.7
2017-01-01T06:26:44.846Z,26.7
2017-01-01T06:27:44.992Z,26.7
2017-01-01T06:28:43.448Z,26.7
2017-01-01T06:29:43.606Z,26.7
2017-01-01T06:30:45.134Z,26.7
2017-01-01T06:31:43.625Z,26.6
2017-01-01T06:32:45.312Z,26.7
2017-01-01T06:33:43.844Z,26.6
2017-01-01T06:34:45.478Z,26.7
2017-01-01T06:35:45.518Z,26.7
2017-01-01T06:36:45.613Z,26.7
2017-01-01T06:37:45.565Z,26.7
2017-01-01T06:38:45.664Z,26.6
2017-01-01T06:39:45.776Z,26.7
2017-01-01T06:40:44.072Z,26.7
2017-01-01T06:41:45.659Z,26.7
2017-01-01T06:42:44.124Z,26.7
2017-01-01T06:43:45.716Z,26.6
2017-01-01T06:44:45.842Z,26.7
2017-01-01T06:45:45.936Z,26.6
2017-01-01T06:46:44.483Z,26.7
2017-01-01T06:47:44.320Z,26.6
2017-01-01T06:48:46.047Z,26.7
2017-01-01T06:49:44.536Z,26.7
2017-01-01T06:50:44.455Z,26.7
2017-01-01T06:51:46.188Z,26.6
2017-01-01T06:52:44.548Z,26.7
2017-01-01T06:53:44.682Z,26.6
2017-01-01T06:54:44.664Z,26.7
2017-01-01T06:55:46.375Z,26.7
2017-01-01T06:56:44.855Z,26.7
2017-01-01T06:57:46.361Z,26.7
2017-01-01T06:58:46.477Z,26.6
2017-01-01T06:59:46.574Z,26.7
2017-01-01T07:00:44.993Z,26.6
2017-01-01T07:01:45.068Z,26.7
2017-01-01T07:02:45.142Z,26.7
2017-01-01T07:03:46.889Z,26.6
2017-01-01T07:04:46.916Z,26.7
2017-01-01T07:05:47.021Z,26.6
2017-01-01T07:06:45.500Z,26.7
2017-01-01T07:07:45.526Z,26.7
2017-01-01T07:08:47.060Z,26.7
2017-01-01T07:09:47.198Z,26.7
2017-01-01T07:10:47.134Z,26.6
2017-01-01T07:11:45.754Z,26.7
2017-01-01T07:12:45.649Z,26.6
2017-01-01T07:13:45.625Z,26.7
2017-01-01T07:14:45.722Z,26.7
2017-01-01T07:15:45.833Z,26.7
2017-01-01T07:16:47.527Z,26.7
2017-01-01T07:17:47.536Z,26.7
2017-01-01T07:18:47.598Z,26.7
2017-01-01T07:19:47.654Z,26.7
2017-01-01T07:20:47.744Z,26.7
2017-01-01T07:21:46.272Z,26.7
2017-01-01T07:22:47.774Z,26.6
2017-01-01T07:23:47.851Z,26.7
2017-01-01T07:24:46.256Z,26.7
2017-01-01T07:25:46.305Z,26.7
2017-01-01T07:26:47.954Z,26.7
2017-01-01T07:27:46.545Z,26.7
2017-01-01T07:28:48.044Z,26.7
2017-01-01T07:29:48.225Z,26.7
2017-01-01T07:30:48.101Z,26.6
2017-01-01T07:31:46.535Z,26.7
2017-01-01T07:32:48.292Z,26.7
2017-01-01T07:33:46.697Z,26.6
2017-01-01T07:34:48.308Z,26.7
2017-01-01T07:35:46.771Z,26.7
2017-01-01T07:36:48.302Z,26.6
2017-01-01T07:37:48.509Z,26.7
2017-01-01T07:38:48.563Z,26.7
2017-01-01T07:39:46.934Z,26.7
2017-01-01T07:40:47.085Z,26.7
2017-01-01T07:41:48.549Z,26.7
2017-01-01T07:42:48.684Z,26.7
2017-01-01T07:43:48.677Z,26.6
2017-01-01T07:44:47.215Z,26.7
2017-01-01T07:45:47.286Z,26.7
2017-01-01T07:46:47.306Z,26.7
2017-01-01T07:47:49.005Z,26.7
2017-01-01T07:48:48.953Z,26.7
2017-01-01T07:49:47.476Z,26.7
2017-01-01T07:50:47.560Z,26.6
2017-01-01T07:51:49.178Z,26.7
2017-01-01T07:52:47.620Z,26.7
2017-01-01T07:53:47.708Z,26.7
2017-01-01T07:54:47.801Z,26.7
2017-01-01T07:55:47.838Z,26.7
2017-01-01T07:56:47.812Z,26.7
2017-01-01T07:57:49.482Z,26.7
2017-01-01T07:58:49.509Z,26.7
2017-01-01T07:59:48.007Z,26.7
2017-01-01T08:00:48.097Z,26.7
2017-01-01T08:01:48.134Z,26.7
2017-01-01T08:02:48.275Z,26.7
2017-01-01T08:03:49.863Z,26.7
2017-01-01T08:04:48.445Z,26.7
2017-01-01T08:05:48.578Z,26.7
2017-01-01T08:06:48.663Z,26.7
2017-01-01T08:07:48.661Z,26.7
2017-01-01T08:08:50.285Z,26.7
2017-01-01T08:09:50.308Z,26.7
2017-01-01T08:10:50.330Z,26.7
2017-01-01T08:11:48.806Z,26.6
2017-01-01T08:12:50.279Z,26.7
2017-01-01T08:13:48.898Z,26.7
2017-01-01T08:14:50.577Z,26.7
2017-01-01T08:15:48.913Z,26.7
2017-01-01T08:16:49.016Z,26.7
2017-01-01T08:17:49.028Z,26.7
2017-01-01T08:18:48.977Z,26.7
2017-01-01T08:19:50.576Z,26.7
2017-01-01T08:20:50.683Z,26.7
2017-01-01T08:21:49.224Z,26.6
2017-01-01T08:22:50.802Z,26.7
2017-01-01T08:23:50.827Z,26.7
2017-01-01T08:24:49.257Z,26.7
2017-01-01T08:25:51.030Z,26.7
2017-01-01T08:26:49.301Z,26.7
2017-01-01T08:27:49.516Z,26.7
2017-01-01T08:28:51.050Z,26.7
2017-01-01T08:29:51.235Z,26.7
2017-01-01T08:30:51.136Z,26.7
2017-01-01T08:31:51.371Z,26.6
2017-01-01T08:32:51.255Z,26.7
2017-01-01T08:33:51.296Z,26.7
2017-01-01T08:34:51.383Z,26.7
2017-01-01T08:35:49.952Z,26.7
2017-01-01T08:36:49.916Z,26.7
2017-01-01T08:37:49.997Z,26.7
2017-01-01T08:38:50.096Z,26.7
2017-01-01T08:39:51.859Z,26.7
2017-01-01T08:40:51.799Z,26.7
2017-01-01T08:41:52.027Z,26.7
2017-01-01T08:42:51.906Z,26.7
2017-01-01T08:43:50.484Z,26.7
2017-01-01T08:44:50.620Z,26.7
2017-01-01T08:45:52.207Z,26.8
2017-01-01T08:46:50.588Z,26.7
2017-01-01T08:47:50.673Z,26.8
2017-01-01T08:48:52.235Z,26.8
2017-01-01T08:49:52.157Z,26.8
2017-01-01T08:50:50.756Z,26.7
2017-01-01T08:51:50.817Z,26.8
2017-01-01T08:52:52.447Z,26.8
2017-01-01T08:53:50.989Z,26.8
2017-01-01T08:54:52.597Z,26.7
2017-01-01T08:55:50.947Z,26.8
2017-01-01T08:56:52.675Z,26.8
2017-01-01T08:57:51.063Z,26.8
2017-01-01T08:58:51.079Z,26.8
2017-01-01T08:59:51.145Z,26.8
2017-01-01T09:00:51.380Z,26.8
2017-01-01T09:01:53.022Z,26.7
2017-01-01T09:02:53.110Z,26.8
2017-01-01T09:03:51.459Z,26.7
2017-01-01T09:04:53.163Z,26.8
2017-01-01T09:05:51.543Z,26.8
2017-01-01T09:06:51.707Z,26.8
2017-01-01T09:07:53.357Z,26.8
2017-01-01T09:08:51.874Z,26.7
2017-01-01T09:09:51.760Z,26.8
2017-01-01T09:10:51.758Z,26.7
2017-01-01T09:11:53.417Z,26.8
2017-01-01T09:12:53.568Z,26.8
2017-01-01T09:13:53.547Z,26.8
2017-01-01T09:14:52.108Z,26.8
2017-01-01T09:15:52.228Z,26.8
2017-01-01T09:16:53.772Z,26.8
2017-01-01T09:17:52.225Z,26.8
2017-01-01T09:18:52.264Z,26.8
2017-01-01T09:19:52.424Z,26.8
2017-01-01T09:20:52.373Z,26.8
2017-01-01T09:21:52.537Z,26.8
2017-01-01T09:22:52.389Z,26.8
2017-01-01T09:23:54.097Z,26.8
2017-01-01T09:24:52.560Z,26.8
2017-01-01T09:25:54.163Z,26.8
2017-01-01T09:26:52.524Z,26.8
2017-01-01T09:27:54.208Z,26.8
2017-01-01T09:28:52.716Z,26.9
2017-01-01T09:29:54.179Z,26.9
2017-01-01T09:30:54.392Z,26.8
2017-01-01T09:31:54.322Z,26.9
2017-01-01T09:32:54.318Z,26.9
2017-01-01T09:33:54.365Z,26.9
2017-01-01T09:34:52.929Z,26.9
2017-01-01T09:35:54.375Z,26.9
2017-01-01T09:36:52.874Z,26.9
2017-01-01T09:37:52.970Z,26.9
2017-01-01T09:38:53.201Z,26.9
2017-01-01T09:39:54.614Z,26.9
2017-01-01T09:40:53.175Z,27
2017-01-01T09:41:54.757Z,27
2017-01-01T09:42:53.297Z,26.9
2017-01-01T09:43:53.270Z,27
2017-01-01T09:44:53.355Z,26.9
2017-01-01T09:45:53.354Z,27
2017-01-01T09:46:53.486Z,27
2017-01-01T09:47:53.437Z,27
2017-01-01T09:48:55.106Z,27
2017-01-01T09:49:55.066Z,27
2017-01-01T09:50:55.210Z,27
2017-01-01T09:51:53.633Z,27
2017-01-01T09:52:53.681Z,26.9
2017-01-01T09:53:55.322Z,27
2017-01-01T09:54:55.353Z,27
2017-01-01T09:55:55.376Z,27
2017-01-01T09:56:55.506Z,27
2017-01-01T09:57:54.044Z,27
2017-01-01T09:58:55.637Z,27
2017-01-01T09:59:54.169Z,27
2017-01-01T10:00:54.285Z,27
2017-01-01T10:01:54.379Z,27
2017-01-01T10:02:54.311Z,27
2017-01-01T10:03:54.487Z,27
2017-01-01T10:04:54.497Z,27
2017-01-01T10:05:56.025Z,27
2017-01-01T10:06:56.146Z,27
2017-01-01T10:07:56.268Z,27
2017-01-01T10:08:54.772Z,27
2017-01-01T10:09:56.395Z,27
2017-01-01T10:10:54.741Z,27
2017-01-01T10:11:54.749Z,27
2017-01-01T10:12:54.900Z,27
2017-01-01T10:13:56.605Z,27
2017-01-01T10:14:55.083Z,27
2017-01-01T10:15:56.593Z,27
2017-01-01T10:16:55.028Z,27
2017-01-01T10:17:56.675Z,27
2017-01-01T10:18:56.739Z,27
2017-01-01T10:19:55.310Z,27.1
2017-01-01T10:20:55.207Z,27
2017-01-01T10:21:56.832Z,27.1
2017-01-01T10:22:56.972Z,27.1
2017-01-01T10:23:55.429Z,27.1
2017-01-01T10:24:55.349Z,27.2
2017-01-01T10:25:55.535Z,27.2
2017-01-01T10:26:55.515Z,27.2
2017-01-01T10:27:57.082Z,27.3
2017-01-01T10:28:55.511Z,27.3
2017-01-01T10:29:57.185Z,27.4
2017-01-01T10:30:55.668Z,27.5
2017-01-01T10:31:57.468Z,27.5
2017-01-01T10:32:57.518Z,27.6
2017-01-01T10:33:57.416Z,27.6
2017-01-01T10:34:55.894Z,27.7
2017-01-01T10:35:56.110Z,27.7
2017-01-01T10:36:57.692Z,27.8
2017-01-01T10:37:56.212Z,27.9
2017-01-01T10:38:57.795Z,27.9
2017-01-01T10:39:56.235Z,28
2017-01-01T10:40:56.298Z,28
2017-01-01T10:41:57.917Z,28
2017-01-01T10:42:56.366Z,28.1
2017-01-01T10:43:56.404Z,28.1
2017-01-01T10:44:58.136Z,28.2
2017-01-01T10:45:57.992Z,28.2
2017-01-01T10:46:56.610Z,28.3
2017-01-01T10:47:56.694Z,28.3
2017-01-01T10:48:58.294Z,28.4
2017-01-01T10:49:58.333Z,28.4
2017-01-01T10:50:58.469Z,28.5
2017-01-01T10:51:58.417Z,28.5
2017-01-01T10:52:56.910Z,28.5
2017-01-01T10:53:58.708Z,28.6
2017-01-01T10:54:58.650Z,28.6
2017-01-01T10:55:58.767Z,28.6
2017-01-01T10:56:57.157Z,28.5
2017-01-01T10:57:58.943Z,28.5
2017-01-01T10:58:57.374Z,28.4
2017-01-01T10:59:59.006Z,28.4
2017-01-01T11:00:59.020Z,28.3
2017-01-01T11:01:57.385Z,28.3
2017-01-01T11:02:59.182Z,28.3
2017-01-01T11:03:59.107Z,28.2
2017-01-01T11:04:59.223Z,28.2
2017-01-01T11:05:57.607Z,28.2
2017-01-01T11:06:59.388Z,28.2
2017-01-01T11:07:59.432Z,28.1
2017-01-01T11:08:57.934Z,28.2
2017-01-01T11:09:59.628Z,28.1
2017-01-01T11:10:57.957Z,28.1
2017-01-01T11:11:59.640Z,28.1
2017-01-01T11:12:59.877Z,28.1
2017-01-01T11:13:59.824Z,28.1
2017-01-01T11:14:58.240Z,28.1
2017-01-01T11:15:59.801Z,28.1
2017-01-01T11:16:58.419Z,28.1
2017-01-01T11:18:00.069Z,28.1
2017-01-01T11:18:59.245Z,28.1
2017-01-01T11:19:58.505Z,28.1
2017-01-01T11:20:58.616Z,28
2017-01-01T11:22:00.193Z,28
2017-01-01T11:23:00.205Z,28
2017-01-01T11:24:00.396Z,28
2017-01-01T11:25:00.919Z,28
2017-01-01T11:26:00.407Z,28
2017-01-01T11:27:00.516Z,28
2017-01-01T11:28:00.412Z,28
2017-01-01T11:28:58.949Z,28
2017-01-01T11:30:00.600Z,28
2017-01-01T11:31:00.690Z,28
2017-01-01T11:32:00.763Z,28
2017-01-01T11:33:00.674Z,28
2017-01-01T11:34:00.723Z,28
2017-01-01T11:34:59.141Z,28
2017-01-01T11:36:01.004Z,28
2017-01-01T11:37:01.000Z,28
2017-01-01T11:38:01.110Z,28
2017-01-01T11:38:59.551Z,28
2017-01-01T11:40:01.143Z,28
2017-01-01T11:41:01.163Z,28
2017-01-01T11:41:59.681Z,28
2017-01-01T11:43:01.201Z,28
2017-01-01T11:43:59.714Z,28
2017-01-01T11:45:01.494Z,28
2017-01-01T11:46:01.395Z,28
2017-01-01T11:47:01.537Z,28
2017-01-01T11:48:01.498Z,28
2017-01-01T11:49:01.447Z,28
2017-01-01T11:50:00.062Z,28
2017-01-01T11:51:01.643Z,28
2017-01-01T11:52:00.118Z,28
2017-01-01T11:53:00.278Z,28
2017-01-01T11:54:01.783Z,28
2017-01-01T11:55:00.388Z,28
2017-01-01T11:56:01.903Z,28
2017-01-01T11:57:02.061Z,28
2017-01-01T11:58:02.047Z,28
2017-01-01T11:59:02.217Z,28
2017-01-01T12:00:00.673Z,28
2017-01-01T12:01:02.146Z,28
2017-01-01T12:02:02.234Z,28
2017-01-01T12:03:00.734Z,28
2017-01-01T12:04:02.488Z,28
2017-01-01T12:05:02.395Z,28
2017-01-01T12:06:00.990Z,28
2017-01-01T12:07:02.496Z,28
2017-01-01T12:08:00.955Z,28
2017-01-01T12:09:02.758Z,28
2017-01-01T12:10:01.111Z,28
2017-01-01T12:11:01.211Z,28
2017-01-01T12:12:01.319Z,28
2017-01-01T12:13:01.322Z,28
2017-01-01T12:14:02.890Z,28
2017-01-01T12:15:02.948Z,28
2017-01-01T12:16:01.416Z,28
2017-01-01T12:17:03.084Z,28
2017-01-01T12:18:01.441Z,28
2017-01-01T12:19:03.168Z,28
2017-01-01T12:20:03.214Z,28
2017-01-01T12:21:01.705Z,27.9
2017-01-01T12:22:03.344Z,28
2017-01-01T12:23:03.394Z,28
2017-01-01T12:24:03.411Z,28
2017-01-01T12:25:03.379Z,28
2017-01-01T12:26:01.954Z,28
2017-01-01T12:27:01.908Z,28
2017-01-01T12:28:03.550Z,28
2017-01-01T12:29:03.655Z,28
2017-01-01T12:30:03.547Z,28
2017-01-01T12:31:03.719Z,28
2017-01-01T12:32:03.733Z,28
2017-01-01T12:33:03.865Z,28
2017-01-01T12:34:03.790Z,28
2017-01-01T12:35:03.938Z,28
2017-01-01T12:36:02.240Z,28
2017-01-01T12:37:03.858Z,28
2017-01-01T12:38:04.095Z,28
2017-01-01T12:39:04.113Z,28
2017-01-01T12:40:02.580Z,28
2017-01-01T12:41:02.491Z,28
2017-01-01T12:42:04.128Z,28
2017-01-01T12:43:04.163Z,28
2017-01-01T12:44:04.353Z,28
2017-01-01T12:45:04.355Z,28
2017-01-01T12:46:02.979Z,28
2017-01-01T12:47:04.566Z,28
2017-01-01T12:48:04.437Z,28
2017-01-01T12:49:04.635Z,28
2017-01-01T12:50:03.020Z,28
2017-01-01T12:51:03.133Z,28
2017-01-01T12:52:03.112Z,28
2017-01-01T12:53:04.738Z,28
2017-01-01T12:54:03.158Z,28
2017-01-01T12:55:03.206Z,28
2017-01-01T12:56:03.427Z,28.1
2017-01-01T12:57:05.047Z,28
2017-01-01T12:58:05.160Z,28
2017-01-01T12:59:03.647Z,28
2017-01-01T13:00:03.564Z,28
2017-01-01T13:01:05.384Z,28
2017-01-01T13:02:05.291Z,28
2017-01-01T13:03:03.739Z,28
2017-01-01T13:04:03.928Z,28
2017-01-01T13:05:04.082Z,28
2017-01-01T13:06:05.668Z,28
2017-01-01T13:07:05.697Z,28
2017-01-01T13:08:04.101Z,28
2017-01-01T13:09:05.723Z,28
2017-01-01T13:10:04.052Z,28
2017-01-01T13:11:04.175Z,28
2017-01-01T13:12:04.167Z,28
2017-01-01T13:13:04.172Z,28
2017-01-01T13:14:04.229Z,28
2017-01-01T13:15:04.153Z,28
2017-01-01T13:16:04.228Z,28
2017-01-01T13:17:04.316Z,28
2017-01-01T13:18:04.532Z,28
2017-01-01T13:19:04.459Z,28.1
2017-01-01T13:20:04.547Z,28.1
2017-01-01T13:21:04.744Z,28.1
2017-01-01T13:22:06.303Z,28
2017-01-01T13:23:04.835Z,28
2017-01-01T13:24:04.823Z,28.1
2017-01-01T13:25:04.976Z,28.1
2017-01-01T13:26:04.914Z,28.1
2017-01-01T13:27:05.072Z,28.1
2017-01-01T13:28:06.574Z,28.1
2017-01-01T13:29:06.691Z,28.1
2017-01-01T13:30:06.706Z,28.1
2017-01-01T13:31:06.862Z,28
2017-01-01T13:32:05.230Z,28
2017-01-01T13:33:05.207Z,28
2017-01-01T13:34:06.879Z,28
2017-01-01T13:35:06.965Z,28
2017-01-01T13:36:05.579Z,28
2017-01-01T13:37:07.164Z,28
2017-01-01T13:38:07.231Z,28
2017-01-01T13:39:07.230Z,28
2017-01-01T13:40:07.301Z,28
2017-01-01T13:41:05.677Z,28
2017-01-01T13:42:07.465Z,28
2017-01-01T13:43:05.774Z,28
2017-01-01T13:44:07.606Z,28
2017-01-01T13:45:07.620Z,28
2017-01-01T13:46:07.550Z,28
2017-01-01T13:47:07.792Z,28
2017-01-01T13:48:06.150Z,28
2017-01-01T13:49:06.132Z,28
2017-01-01T13:50:07.790Z,28